createdAt,value
2023-05-02T00:02:04.209Z,98505.63
2023-05-02T00:04:30.894Z,98509.25
2023-05-02T00:06:57.637Z,98510.06
2023-05-02T00:09:24.289Z,98501.31
2023-05-02T00:11:51.060Z,98501.53
2023-05-02T00:14:17.599Z,98502.25
2023-05-02T00:16:44.397Z,98502.25
2023-05-02T00:19:10.922Z,98503.22
2023-05-02T00:21:37.631Z,98505.84
2023-05-02T00:24:04.423Z,98506.72
2023-05-02T00:26:31.052Z,98505.84
2023-05-02T00:28:58.442Z,98500.69
2023-05-02T00:31:25.139Z,98500.81
2023-05-02T00:33:51.636Z,98502.50
2023-05-02T00:36:20.146Z,98505.16
2023-05-02T00:38:46.693Z,98505.25
2023-05-02T00:41:14.001Z,98500.81
2023-05-02T00:43:41.143Z,98507.06
2023-05-02T00:46:08.447Z,98505.25
2023-05-02T00:48:35.396Z,98487.19
2023-05-02T00:51:08.691Z,98488.53
2023-05-02T00:53:36.139Z,98496.47
2023-05-02T00:56:02.890Z,98490.31
2023-05-02T00:58:30.813Z,98487.69
2023-05-02T01:01:12.679Z,98504.53
2023-05-02T01:03:50.807Z,98503.91
2023-05-02T01:06:29.693Z,98504.63
2023-05-02T01:09:12.904Z,98508.34
2023-05-02T01:11:58.587Z,98492.22
2023-05-02T01:14:29.023Z,98502.56
2023-05-02T01:16:58.843Z,98509.09
2023-05-02T01:19:32.190Z,98507.41
2023-05-02T01:22:01.896Z,98493.19
2023-05-02T01:24:56.771Z,98511.00
2023-05-02T01:27:41.772Z,98508.47
2023-05-02T01:30:11.776Z,98503.19
2023-05-02T01:32:41.374Z,98507.63
2023-05-02T01:35:10.689Z,98505.09
2023-05-02T01:37:39.694Z,98503.31
2023-05-02T01:40:09.401Z,98503.31
2023-05-02T01:42:38.486Z,98504.13
2023-05-02T01:45:07.366Z,98499.78
2023-05-02T01:47:36.698Z,98501.63
2023-05-02T01:50:09.485Z,98504.25
2023-05-02T01:52:37.232Z,98507.13
2023-05-02T01:55:06.279Z,98511.38
2023-05-02T01:57:33.137Z,98511.44
2023-05-02T02:00:01.091Z,98516.75
2023-05-02T02:02:29.686Z,98505.53
2023-05-02T02:04:57.768Z,98513.25
2023-05-02T02:07:24.573Z,98512.41
2023-05-02T02:09:52.822Z,98514.22
2023-05-02T02:12:32.040Z,98513.38
2023-05-02T02:15:18.738Z,98509.88
2023-05-02T02:17:50.366Z,98512.53
2023-05-02T02:20:18.750Z,98512.66
2023-05-02T02:22:49.087Z,98512.66
2023-05-02T02:25:17.493Z,98509.25
2023-05-02T02:27:44.239Z,98514.47
2023-05-02T02:30:11.601Z,98515.41
2023-05-02T02:32:38.185Z,98518.88
2023-05-02T02:35:05.597Z,98516.25
2023-05-02T02:37:37.700Z,98517.09
2023-05-02T02:40:10.293Z,98511.06
2023-05-02T02:42:56.048Z,98512.03
2023-05-02T02:45:55.057Z,98513.84
2023-05-02T02:48:42.950Z,98514.69
2023-05-02T02:51:15.891Z,98521.88
2023-05-02T02:54:26.901Z,98519.22
2023-05-02T02:57:06.298Z,98527.53
2023-05-02T02:59:41.838Z,98526.53
2023-05-02T03:02:12.914Z,98523.38
2023-05-02T03:04:42.514Z,98529.31
2023-05-02T03:07:09.464Z,98527.53
2023-05-02T03:09:47.335Z,98517.28
2023-05-02T03:12:21.180Z,98507.16
2023-05-02T03:14:49.986Z,98503.16
2023-05-02T03:17:17.417Z,98527.59
2023-05-02T03:19:44.051Z,98529.31
2023-05-02T03:22:12.142Z,98518.34
2023-05-02T03:24:39.540Z,98531.94
2023-05-02T03:27:06.283Z,98534.59
2023-05-02T03:29:39.857Z,98528.81
2023-05-02T03:32:07.058Z,98542.63
2023-05-02T03:34:35.102Z,98530.25
2023-05-02T03:37:01.813Z,98533.75
2023-05-02T03:39:29.445Z,98521.94
2023-05-02T03:41:56.109Z,98529.41
2023-05-02T03:44:24.263Z,98532.91
2023-05-02T03:46:50.962Z,98525.31
2023-05-02T03:49:19.550Z,98544.34
2023-05-02T03:51:48.118Z,98546.13
2023-05-02T03:54:19.672Z,98540.81
2023-05-02T03:56:47.803Z,98505.47
2023-05-02T03:59:23.123Z,98544.34
2023-05-02T04:01:51.148Z,98518.06
2023-05-02T04:04:23.720Z,98521.94
2023-05-02T04:06:52.418Z,98533.97
2023-05-02T04:09:23.530Z,98549.84
2023-05-02T04:11:54.311Z,98543.72
2023-05-02T04:14:21.392Z,98548.13
2023-05-02T04:16:50.933Z,98548.03
2023-05-02T04:19:22.882Z,98548.88
2023-05-02T04:21:49.427Z,98526.81
2023-05-02T04:24:17.073Z,98539.59
2023-05-02T04:26:47.531Z,98555.00
2023-05-02T04:29:15.165Z,98547.06
2023-05-02T04:31:42.502Z,98555.00
2023-05-02T04:34:10.318Z,98547.06
2023-05-02T04:36:42.225Z,98537.81
2023-05-02T04:39:12.483Z,98525.88
2023-05-02T04:41:44.642Z,98544.34
2023-05-02T04:44:11.275Z,98550.44
2023-05-02T04:46:38.518Z,98551.41
2023-05-02T04:49:08.531Z,98548.66
2023-05-02T04:51:35.075Z,98542.75
2023-05-02T04:54:01.801Z,98548.66
2023-05-02T04:56:28.483Z,98550.44
2023-05-02T04:58:55.164Z,98539.88
2023-05-02T05:01:24.233Z,98540.22
2023-05-02T05:03:51.085Z,98550.25
2023-05-02T05:06:19.272Z,98544.97
2023-05-02T05:08:46.551Z,98548.44
2023-05-02T05:11:17.872Z,98542.94
2023-05-02T05:13:44.483Z,98526.66
2023-05-02T05:16:13.315Z,98524.34
2023-05-02T05:18:43.000Z,98542.06
2023-05-02T05:21:12.299Z,98551.56
2023-05-02T05:23:39.856Z,98541.00
2023-05-02T05:26:11.223Z,98537.53
2023-05-02T05:28:39.669Z,98552.31
2023-05-02T05:31:07.555Z,98554.00
2023-05-02T05:33:35.713Z,98544.25
2023-05-02T05:36:15.004Z,98540.16
2023-05-02T05:38:41.737Z,98524.63
2023-05-02T05:41:11.039Z,98532.84
2023-05-02T05:43:41.343Z,98548.13
2023-05-02T05:46:08.250Z,98543.59
2023-05-02T05:48:36.606Z,98532.59
2023-05-02T05:51:05.281Z,98531.53
2023-05-02T05:53:32.458Z,98543.97
2023-05-02T05:56:09.007Z,98554.34
2023-05-02T05:58:37.354Z,98544.69
2023-05-02T06:01:04.488Z,98554.22
2023-05-02T06:03:32.025Z,98548.66
2023-05-02T06:05:58.798Z,98543.00
2023-05-02T06:08:28.550Z,98553.13
2023-05-02T06:10:55.266Z,98560.59
2023-05-02T06:13:22.108Z,98564.00
2023-05-02T06:15:50.025Z,98564.69
2023-05-02T06:18:16.852Z,98561.97
2023-05-02T06:20:43.547Z,98562.91
2023-05-02T06:23:10.102Z,98551.09
2023-05-02T06:25:39.864Z,98567.88
2023-05-02T06:28:07.111Z,98569.53
2023-05-02T06:30:33.824Z,98567.63
2023-05-02T06:33:00.717Z,98566.69
2023-05-02T06:35:27.436Z,98576.31
2023-05-02T06:37:53.966Z,98568.25
2023-05-02T06:40:20.645Z,98573.41
2023-05-02T06:42:47.252Z,98558.25
2023-05-02T06:45:15.488Z,98566.25
2023-05-02T06:47:42.147Z,98571.41
2023-05-02T06:50:09.329Z,98562.47
2023-05-02T06:52:35.851Z,98578.41
2023-05-02T06:55:02.563Z,98562.00
2023-05-02T06:57:29.150Z,98582.50
2023-05-02T06:59:56.063Z,98579.13
2023-05-02T07:02:22.764Z,98570.75
2023-05-02T07:04:49.417Z,98582.28
2023-05-02T07:07:18.800Z,98580.44
2023-05-02T07:09:45.673Z,98572.97
2023-05-02T07:12:12.169Z,98571.19
2023-05-02T07:14:39.382Z,98587.22
2023-05-02T07:17:06.459Z,98577.72
2023-05-02T07:19:33.273Z,98578.31
2023-05-02T07:21:59.921Z,98559.13
2023-05-02T07:24:26.610Z,98570.34
2023-05-02T07:26:53.122Z,98585.19
2023-05-02T07:29:19.742Z,98556.69
2023-05-02T07:31:46.337Z,98585.19
2023-05-02T07:34:12.942Z,98579.63
2023-05-02T07:36:39.743Z,98583.38
2023-05-02T07:39:06.463Z,98601.44
2023-05-02T07:41:33.054Z,98589.28
2023-05-02T07:44:01.387Z,98597.84
2023-05-02T07:46:28.121Z,98596.88
2023-05-02T07:48:55.744Z,98600.34
2023-05-02T07:51:22.537Z,98598.56
2023-05-02T07:53:53.670Z,98576.38
2023-05-02T07:56:21.205Z,98593.28
2023-05-02T07:58:47.706Z,98596.53
2023-05-02T08:01:14.383Z,98578.56
2023-05-02T08:03:45.172Z,98590.03
2023-05-02T08:06:13.197Z,98592.81
2023-05-02T08:08:39.806Z,98603.88
2023-05-02T08:11:06.874Z,98601.25
2023-05-02T08:13:33.492Z,98571.38
2023-05-02T08:16:00.370Z,98603.88
2023-05-02T08:18:27.465Z,98598.47
2023-05-02T08:20:56.277Z,98607.38
2023-05-02T08:23:22.776Z,98608.09
2023-05-02T08:25:49.565Z,98605.44
2023-05-02T08:28:16.154Z,98602.69
2023-05-02T08:30:45.093Z,98610.50
2023-05-02T08:33:11.677Z,98605.09
2023-05-02T08:35:38.299Z,98607.75
2023-05-02T08:38:04.915Z,98611.09
2023-05-02T08:40:41.466Z,98612.81
2023-05-02T08:43:11.693Z,98607.38
2023-05-02T08:45:45.394Z,98612.69
2023-05-02T08:48:13.757Z,98605.59
2023-05-02T08:50:43.569Z,98539.66
2023-05-02T08:53:11.860Z,98597.25
2023-05-02T08:55:40.502Z,98604.50
2023-05-02T08:58:10.817Z,98611.50
2023-05-02T09:00:42.316Z,98603.56
2023-05-02T09:03:09.026Z,98600.66
2023-05-02T09:05:41.585Z,98592.63
2023-05-02T09:08:09.286Z,98596.91
2023-05-02T09:10:39.117Z,98595.00
2023-05-02T09:13:38.136Z,98599.34
2023-05-02T09:16:19.993Z,98601.03
2023-05-02T09:18:47.528Z,98612.34
2023-05-02T09:21:22.469Z,98593.22
2023-05-02T09:23:58.966Z,98608.72
2023-05-02T09:26:34.435Z,98612.94
2023-05-02T09:29:03.570Z,98617.28
2023-05-02T09:34:19.013Z,98618.88
2023-05-02T09:36:56.202Z,98617.94
2023-05-02T09:39:26.105Z,98623.00
2023-05-02T09:41:53.462Z,98630.00
2023-05-02T09:44:22.665Z,98620.34
2023-05-02T09:46:54.074Z,98617.94
2023-05-02T09:49:42.970Z,98620.34
2023-05-02T09:52:13.458Z,98620.97
2023-05-02T09:54:40.299Z,98623.47
2023-05-02T09:57:07.362Z,98608.81
2023-05-02T09:59:36.922Z,98609.03
2023-05-02T10:02:04.773Z,98629.53
2023-05-02T10:04:32.627Z,98619.63
2023-05-02T10:07:00.098Z,98612.75
2023-05-02T10:09:32.092Z,98611.31
2023-05-02T10:12:06.685Z,98629.03
2023-05-02T10:14:41.351Z,98626.13
2023-05-02T10:17:14.285Z,98621.56
2023-05-02T10:19:54.304Z,98609.41
2023-05-02T10:22:25.072Z,98614.22
2023-05-02T10:24:53.428Z,98617.47
2023-05-02T10:27:20.039Z,98613.75
2023-05-02T10:29:47.634Z,98601.06
2023-05-02T10:32:17.144Z,98616.38
2023-05-02T10:34:44.415Z,98609.63
2023-05-02T10:37:12.464Z,98600.22
2023-05-02T10:39:39.229Z,98607.69
2023-05-02T10:42:06.955Z,98605.06
2023-05-02T10:44:37.699Z,98603.22
2023-05-02T10:47:26.869Z,98605.06
2023-05-02T10:49:56.729Z,98607.69
2023-05-02T10:52:46.731Z,98607.69
2023-05-02T10:55:19.383Z,98604.22
2023-05-02T10:58:01.116Z,98608.53
2023-05-02T11:00:30.286Z,98605.88
2023-05-02T11:02:57.439Z,98593.63
2023-05-02T11:08:20.268Z,98606.38
2023-05-02T11:10:48.907Z,98599.13
2023-05-02T11:13:16.184Z,98599.03
2023-05-02T11:16:12.372Z,98601.56
2023-05-02T11:18:58.941Z,98606.84
2023-05-02T11:21:32.864Z,98613.00
2023-05-02T11:24:37.138Z,98605.03
2023-05-02T11:27:30.167Z,98604.22
2023-05-02T11:30:00.548Z,98608.66
2023-05-02T11:32:49.758Z,98613.00
2023-05-02T11:35:22.983Z,98605.28
2023-05-02T11:38:12.662Z,98591.94
2023-05-02T11:40:39.272Z,98607.59
2023-05-02T11:43:16.614Z,98604.06
2023-05-02T11:45:43.775Z,98605.50
2023-05-02T11:48:17.354Z,98602.75
2023-05-02T11:50:58.177Z,98610.44
2023-05-02T11:53:26.711Z,98612.16
2023-05-02T11:55:58.176Z,98612.00
2023-05-02T11:58:30.175Z,98612.88
2023-05-02T12:00:57.215Z,98614.56
2023-05-02T12:03:23.995Z,98602.97
2023-05-02T12:05:52.328Z,98575.88
2023-05-02T12:08:20.781Z,98602.38
2023-05-02T12:10:47.609Z,98609.84
2023-05-02T12:13:14.555Z,98611.53
2023-05-02T12:15:41.983Z,98608.88
2023-05-02T12:18:08.989Z,98615.88
2023-05-02T12:20:38.634Z,98612.38
2023-05-02T12:23:10.163Z,98602.72
2023-05-02T12:25:39.179Z,98605.25
2023-05-02T12:28:06.057Z,98610.44
2023-05-02T12:30:33.162Z,98616.59
2023-05-02T12:33:01.724Z,98588.41
2023-05-02T12:35:30.341Z,98622.72
2023-05-02T12:38:13.056Z,98614.91
2023-05-02T12:40:57.781Z,98620.34
2023-05-02T12:43:24.772Z,98596.50
2023-05-02T12:46:09.733Z,98611.66
2023-05-02T12:48:36.872Z,98616.13
2023-05-02T12:51:03.502Z,98624.91
2023-05-02T12:53:44.506Z,98627.44
2023-05-02T12:56:11.901Z,98634.44
2023-05-02T12:58:46.494Z,98623.69
2023-05-02T13:01:15.074Z,98631.91
2023-05-02T13:03:43.409Z,98627.09
2023-05-02T13:06:11.079Z,98630.09
2023-05-02T13:08:37.672Z,98628.53
2023-05-02T13:13:32.551Z,98635.06
2023-05-02T13:15:59.277Z,98638.91
2023-05-02T13:18:28.159Z,98631.69
2023-05-02T13:20:55.382Z,98597.13
2023-05-02T13:23:22.089Z,98604.34
2023-05-02T13:25:48.616Z,98628.19
2023-05-02T13:28:15.424Z,98628.19
2023-05-02T13:30:43.173Z,98628.56
2023-05-02T13:33:09.775Z,98639.16
2023-05-02T13:35:36.814Z,98643.13
2023-05-02T13:38:03.954Z,98662.16
2023-05-02T13:40:30.597Z,98686.00
2023-05-02T13:42:57.525Z,98674.66
2023-05-02T13:45:24.211Z,98687.56
2023-05-02T13:47:50.831Z,98688.06
2023-05-02T13:50:17.517Z,98709.03
2023-05-02T13:52:44.853Z,98723.00
2023-05-02T13:55:12.697Z,98723.84
2023-05-02T13:57:39.264Z,98725.78
2023-05-02T14:00:09.534Z,98728.56
2023-05-02T14:02:36.653Z,98740.34
2023-05-02T14:05:03.537Z,98744.06
2023-05-02T14:07:30.515Z,98750.44
2023-05-02T14:09:57.357Z,98748.16
2023-05-02T14:12:24.051Z,98738.03
2023-05-02T14:14:50.612Z,98745.72
2023-05-02T14:17:17.184Z,98759.84
2023-05-02T14:19:43.708Z,98772.09
2023-05-02T14:22:10.398Z,98763.31
2023-05-02T14:24:36.929Z,98761.63
2023-05-02T14:27:04.688Z,98766.09
2023-05-02T14:29:31.354Z,98770.66
2023-05-02T14:31:58.121Z,98757.59
2023-05-02T14:34:26.923Z,98750.09
2023-05-02T14:36:53.661Z,98737.84
2023-05-02T14:39:20.364Z,98714.00
2023-05-02T14:41:47.451Z,98700.63
2023-05-02T14:44:13.964Z,98716.41
2023-05-02T14:46:40.641Z,98731.88
2023-05-02T14:49:07.354Z,98728.13
2023-05-02T14:51:33.990Z,98721.75
2023-05-02T14:54:00.650Z,98711.91
2023-05-02T14:56:28.157Z,98710.81
2023-05-02T14:58:54.648Z,98705.38
2023-05-02T15:01:22.534Z,98717.56
2023-05-02T15:04:05.381Z,98723.47
2023-05-02T15:06:33.847Z,98704.31
2023-05-02T15:09:01.562Z,98719.50
2023-05-02T15:11:28.126Z,98716.66
2023-05-02T15:13:56.820Z,98719.88
2023-05-02T15:16:27.120Z,98729.28
2023-05-02T15:18:54.198Z,98724.47
2023-05-02T15:21:23.736Z,98738.94
2023-05-02T15:23:50.772Z,98741.59
2023-05-02T15:26:17.571Z,98731.00
2023-05-02T15:28:44.560Z,98735.31
2023-05-02T15:31:11.210Z,98744.13
2023-05-02T15:33:38.618Z,98744.94
2023-05-02T15:36:05.404Z,98751.94
2023-05-02T15:38:34.016Z,98759.69
2023-05-02T15:41:00.739Z,98762.22
2023-05-02T15:43:28.186Z,98766.56
2023-05-02T15:48:12.613Z,98777.88
2023-05-02T15:50:39.221Z,98789.22
2023-05-02T15:53:05.933Z,98792.00
2023-05-02T15:55:32.572Z,98800.91
2023-05-02T15:57:59.211Z,98780.75
2023-05-02T16:00:26.671Z,98804.63
2023-05-02T16:02:53.337Z,98806.47
2023-05-02T16:05:20.340Z,98809.09
2023-05-02T16:07:46.874Z,98804.75
2023-05-02T16:10:13.669Z,98813.66
2023-05-02T16:12:40.186Z,98806.66
2023-05-02T16:15:08.275Z,98794.47
2023-05-02T16:17:34.847Z,98820.66
2023-05-02T16:20:02.597Z,98831.28
2023-05-02T16:22:29.495Z,98830.41
2023-05-02T16:24:56.315Z,98828.63
2023-05-02T16:27:23.582Z,98834.03
2023-05-02T16:29:50.978Z,98841.13
2023-05-02T16:32:17.840Z,98843.91
2023-05-02T16:34:44.378Z,98851.00
2023-05-02T16:37:11.458Z,98858.34
2023-05-02T16:39:39.902Z,98868.84
2023-05-02T16:44:32.843Z,98888.59
2023-05-02T16:46:59.435Z,98894.00
2023-05-02T16:49:29.108Z,98899.44
2023-05-02T16:51:56.063Z,98906.75
2023-05-02T16:54:22.738Z,98906.16
2023-05-02T16:56:49.285Z,98925.81
2023-05-02T16:59:16.045Z,98929.31
2023-05-02T17:01:42.669Z,98926.66
2023-05-02T17:04:09.838Z,98917.88
2023-05-02T17:06:36.387Z,98919.69
2023-05-02T17:09:04.018Z,98925.94
2023-05-02T17:11:30.625Z,98936.66
2023-05-02T17:13:57.197Z,98937.63
2023-05-02T17:16:23.898Z,98937.63
2023-05-02T17:18:50.926Z,98910.44
2023-05-02T17:21:17.549Z,98929.75
2023-05-02T17:23:44.633Z,98942.31
2023-05-02T17:26:16.879Z,98952.78
2023-05-02T17:28:44.465Z,98959.91
2023-05-02T17:31:11.394Z,98961.69
2023-05-02T17:33:37.984Z,98968.91
2023-05-02T17:36:07.338Z,98965.53
2023-05-02T17:38:33.927Z,98974.31
2023-05-02T17:41:00.446Z,98958.88
2023-05-02T17:43:27.014Z,98984.81
2023-05-02T17:45:53.629Z,98988.44
2023-05-02T17:48:20.325Z,98949.81
2023-05-02T17:50:46.896Z,98988.53
2023-05-02T17:53:15.443Z,98996.47
2023-05-02T17:55:42.282Z,98994.06
2023-05-02T17:58:08.991Z,99004.44
2023-05-02T18:00:35.552Z,99008.91
2023-05-02T18:03:02.601Z,98995.97
2023-05-02T18:05:29.339Z,99008.91
2023-05-02T18:07:56.193Z,99006.25
2023-05-02T18:10:22.715Z,99005.41
2023-05-02T18:12:49.567Z,99001.06
2023-05-02T18:15:16.064Z,98977.97
2023-05-02T18:17:42.742Z,99000.13
2023-05-02T18:20:12.512Z,98967.91
2023-05-02T18:22:39.077Z,99001.06
2023-05-02T18:25:06.256Z,98994.91
2023-05-02T18:27:33.470Z,98998.41
2023-05-02T18:30:00.099Z,98985.69
2023-05-02T18:32:26.954Z,99007.31
2023-05-02T18:34:56.272Z,98995.84
2023-05-02T18:37:31.275Z,98991.53
2023-05-02T18:39:59.038Z,98987.06
2023-05-02T18:42:27.994Z,98988.88
2023-05-02T18:44:58.778Z,98985.59
2023-05-02T18:47:25.748Z,98986.22
2023-05-02T18:49:56.337Z,98989.84
2023-05-02T18:52:26.178Z,98969.69
2023-05-02T18:54:55.195Z,98977.53
2023-05-02T18:57:21.885Z,98969.69
2023-05-02T18:59:48.497Z,98974.50
2023-05-02T19:02:18.617Z,98962.59
2023-05-02T19:04:45.573Z,98957.41
2023-05-02T19:07:12.794Z,98950.53
2023-05-02T19:09:42.990Z,98941.81
2023-05-02T19:12:09.726Z,98943.94
2023-05-02T19:14:39.525Z,98956.53
2023-05-02T19:17:06.618Z,98954.00
2023-05-02T19:19:33.213Z,98967.13
2023-05-02T19:22:00.012Z,98970.66
2023-05-02T19:24:26.934Z,98958.91
2023-05-02T19:26:53.674Z,98980.38
2023-05-02T19:29:20.672Z,98975.34
2023-05-02T19:31:47.323Z,98982.44
2023-05-02T19:34:13.842Z,98976.59
2023-05-02T19:36:40.515Z,98983.16
2023-05-02T19:39:07.783Z,98993.75
2023-05-02T19:41:34.787Z,98991.00
2023-05-02T19:44:04.447Z,98993.75
2023-05-02T19:46:31.211Z,99000.88
2023-05-02T19:48:57.924Z,99005.22
2023-05-02T19:51:29.250Z,99009.78
2023-05-02T19:53:58.620Z,99018.47
2023-05-02T19:56:27.400Z,99018.06
2023-05-02T19:58:54.842Z,99026.31
2023-05-02T20:01:21.558Z,99027.06
2023-05-02T20:03:48.313Z,99020.38
2023-05-02T20:06:15.099Z,98993.25
2023-05-02T20:08:41.788Z,99007.53
2023-05-02T20:11:08.513Z,99033.81
2023-05-02T20:13:35.038Z,99012.44
2023-05-02T20:16:04.694Z,99022.59
2023-05-02T20:18:31.491Z,99028.28
2023-05-02T20:20:58.381Z,99026.50
2023-05-02T20:23:24.923Z,99025.13
2023-05-02T20:25:51.587Z,99039.63
2023-05-02T20:28:18.103Z,99035.16
2023-05-02T20:30:44.721Z,99043.13
2023-05-02T20:33:16.057Z,99035.16
2023-05-02T20:35:43.270Z,99033.38
2023-05-02T20:38:09.981Z,99037.81
2023-05-02T20:40:42.798Z,99036.03
2023-05-02T20:43:09.449Z,99036.88
2023-05-02T20:45:36.049Z,99041.34
2023-05-02T20:48:03.107Z,99048.34
2023-05-02T20:50:29.720Z,99050.03
2023-05-02T20:52:56.762Z,99041.34
2023-05-02T20:55:24.257Z,99056.16
2023-05-02T20:57:52.798Z,99064.13
2023-05-02T21:00:21.859Z,99062.31
2023-05-02T21:02:48.460Z,99069.44
2023-05-02T21:05:15.616Z,99060.84
2023-05-02T21:07:42.275Z,99060.63
2023-05-02T21:10:10.842Z,99062.53
2023-05-02T21:12:37.384Z,99068.59
2023-05-02T21:15:04.275Z,99064.97
2023-05-02T21:17:30.935Z,99066.16
2023-05-02T21:19:57.902Z,99075.56
2023-05-02T21:22:24.490Z,99065.63
2023-05-02T21:24:51.226Z,99084.50
2023-05-02T21:27:17.987Z,99094.97
2023-05-02T21:29:44.764Z,99092.34
2023-05-02T21:32:11.478Z,99089.69
2023-05-02T21:34:38.274Z,99090.63
2023-05-02T21:37:04.932Z,99085.03
2023-05-02T21:39:31.623Z,99090.75
2023-05-02T21:41:58.221Z,99096.78
2023-05-02T21:44:24.834Z,99094.13
2023-05-02T21:46:51.620Z,99060.53
2023-05-02T21:49:18.168Z,99091.47
2023-05-02T21:51:45.031Z,99091.59
2023-05-02T21:54:11.660Z,99075.38
2023-05-02T21:56:38.479Z,99095.09
2023-05-02T21:59:05.019Z,99098.59
2023-05-02T22:01:31.631Z,99090.13
2023-05-02T22:03:58.547Z,99098.72
2023-05-02T22:06:25.316Z,99093.41
2023-05-02T22:08:52.792Z,99076.34
2023-05-02T22:11:21.509Z,99094.34
2023-05-02T22:13:48.411Z,99091.28
2023-05-02T22:16:15.255Z,99106.66
2023-05-02T22:18:46.644Z,99103.13
2023-05-02T22:21:13.297Z,99106.75
2023-05-02T22:23:39.961Z,99106.84
2023-05-02T22:26:06.565Z,99117.47
2023-05-02T22:28:33.358Z,99115.56
2023-05-02T22:30:59.964Z,99113.84
2023-05-02T22:33:26.757Z,99124.47
2023-05-02T22:35:53.715Z,99132.41
2023-05-02T22:38:20.263Z,99126.47
2023-05-02T22:40:46.855Z,99119.72
2023-05-02T22:43:13.373Z,99124.91
2023-05-02T22:45:41.631Z,99097.13
2023-05-02T22:48:08.244Z,99123.00
2023-05-02T22:50:34.885Z,99136.78
2023-05-02T22:53:03.811Z,99144.72
2023-05-02T22:55:30.722Z,99136.25
2023-05-02T22:57:58.017Z,99139.72
2023-05-02T23:00:25.670Z,99153.50
2023-05-02T23:02:52.311Z,99148.19
2023-05-02T23:05:19.467Z,99144.84
2023-05-02T23:07:46.196Z,99146.75
2023-05-02T23:10:12.768Z,99150.03
2023-05-02T23:12:43.216Z,99139.09
2023-05-02T23:15:10.363Z,99126.16
2023-05-02T23:17:41.256Z,99134.75
2023-05-02T23:20:12.628Z,99144.84
2023-05-02T23:22:46.048Z,99148.44
2023-05-02T23:25:14.925Z,99143.97
2023-05-02T23:27:41.465Z,99147.56
2023-05-02T23:30:08.706Z,99096.78
2023-05-02T23:32:35.480Z,99152.88
2023-05-02T23:35:03.240Z,99139.84
2023-05-02T23:37:29.803Z,99148.56
2023-05-02T23:39:58.136Z,99149.50
2023-05-02T23:42:24.735Z,99139.09
2023-05-02T23:44:53.631Z,99151.19
2023-05-02T23:47:21.935Z,99147.56
2023-05-02T23:49:48.577Z,99148.56
2023-05-02T23:52:15.062Z,99142.63
2023-05-02T23:54:41.928Z,99155.63
2023-05-02T23:57:09.239Z,99149.50
2023-05-02T23:59:35.887Z,99155.63
